Data for 04/09/2014

Time Sea-Level Adjusted Pressure Absolute Pressure Temperature Relative Humidity Dew Point   
(mb) (inHg) (mb) (inHg) (C) (F) (%) (C) (F)
00:05 1016 30 845 24.95 12.1 53.8 31 -4.7 23.6
00:10 1016 30 845 24.95 12.1 53.9 30 -4.7 23.5
00:15 1016 30 845 24.95 12.2 53.9 30 -4.7 23.6
00:20 1016 30 845 24.95 12.2 53.9 30 -4.8 23.3
00:25 1016 30 845 24.95 12.3 54.1 30 -4.9 23.1
00:30 1016 30 845 24.95 12.3 54.2 30 -4.8 23.3
00:35 1016 30 845 24.95 12.3 54.2 30 -4.8 23.4
00:40 1016 30 845 24.95 12.3 54.1 30 -4.8 23.4
00:45 1016 30 845 24.95 12.2 54 30 -4.8 23.3
00:50 1016 30 845 24.95 12.1 53.8 31 -4.6 23.7
00:55 1016 30 845 24.95 11.8 53.2 32 -4.4 24.1
01:00 1015 29.97 845 24.95 11.7 53 31 -4.9 23.2
01:05 1016 30 845 24.95 11.9 53.3 31 -4.7 23.5
01:10 1015 29.97 845 24.95 12 53.7 30 -4.9 23.1
01:15 1015 29.97 845 24.95 12.4 54.3 29 -4.9 23.1
01:20 1015 29.97 845 24.95 12.5 54.5 30 -4.7 23.6
01:25 1015 29.97 845 24.95 12.2 54 32 -3.9 24.9
01:30 1015 29.97 844 24.92 11.3 52.3 35 -3.7 25.3
01:35 1015 29.97 844 24.92 11.2 52.2 32 -4.9 23.2
01:40 1015 29.97 845 24.95 11.9 53.3 32 -4.3 24.2
01:45 1015 29.97 845 24.95 11.7 53 34 -3.6 25.5
01:50 1015 29.97 845 24.95 11 51.7 37 -3.3 26.1
01:55 1015 29.97 844 24.92 10.2 50.3 38 -3.3 26
02:00 1015 29.97 844 24.92 9.8 49.6 39 -3.3 26.1
02:05 1015 29.97 844 24.92 9.8 49.7 39 -3.4 25.9
02:10 1015 29.97 844 24.92 9.9 49.7 38 -3.7 25.3
02:15 1015 29.97 844 24.92 10 50 40 -3.1 26.4
02:20 1015 29.97 844 24.92 9.8 49.7 38 -3.7 25.3
02:25 1015 29.97 844 24.92 10.1 50.2 39 -3.3 26.1
02:30 1015 29.97 844 24.92 10 50 38 -3.8 25.2
02:35 1015 29.97 844 24.92 10.4 50.6 36 -3.9 25
02:40 1015 29.97 844 24.92 10.4 50.7 37 -3.8 25.2
02:45 1015 29.97 844 24.92 10.3 50.6 36 -4 24.8
02:50 1015 29.97 844 24.92 10.5 51 34 -4.6 23.7
02:55 1015 29.97 844 24.92 11.1 52 32 -4.9 23.2
03:00 1015 29.97 844 24.92 11.1 52.1 34 -4.3 24.3
03:05 1015 29.97 844 24.92 11.1 51.9 32 -5 23
03:10 1015 29.97 844 24.92 11.1 52 33 -4.4 24.1
03:15 1015 29.97 844 24.92 10.8 51.5 33 -4.8 23.3
03:20 1015 29.97 844 24.92 10.9 51.5 33 -4.6 23.7
03:25 1015 29.97 844 24.92 10.6 51.1 35 -4.2 24.4
03:30 1014 29.94 844 24.92 10.5 50.9 33 -5 22.9
03:35 1014 29.94 844 24.92 10.9 51.6 33 -4.9 23.2
03:40 1014 29.94 844 24.92 11 51.7 32 -5 22.9
03:45 1014 29.94 843 24.89 10.7 51.3 33 -4.8 23.3
03:50 1014 29.94 843 24.89 10.5 50.9 34 -4.7 23.5
03:55 1014 29.94 843 24.89 10.3 50.6 34 -4.9 23.1
04:00 1014 29.94 843 24.89 10.4 50.7 35 -4.6 23.8
04:05 1014 29.94 843 24.89 10.4 50.6 33 -5.2 22.6
04:10 1014 29.94 843 24.89 10.6 51 33 -4.9 23.1
04:15 1014 29.94 843 24.89 10.3 50.5 34 -4.7 23.5
04:20 1014 29.94 843 24.89 10.3 50.5 33 -5.1 22.8
04:25 1014 29.94 843 24.89 10.5 50.9 36 -4 24.8
04:30 1014 29.94 843 24.89 10.2 50.3 34 -5 23
04:35 1014 29.94 843 24.89 10.3 50.6 35 -4.4 24.2
04:40 1014 29.94 843 24.89 10.3 50.5 36 -4.3 24.3
04:45 1014 29.94 843 24.89 10.1 50.1 36 -4.2 24.4
04:50 1014 29.94 843 24.89 9.9 49.9 37 -4 24.8
04:55 1014 29.94 843 24.89 9.8 49.6 37 -4 24.8
05:00 1014 29.94 843 24.89 9.8 49.6 37 -4 24.8
05:05 1014 29.94 843 24.89 9.8 49.6 38 -3.8 25.1
05:10 1014 29.94 843 24.89 9.7 49.4 38 -4.1 24.6
05:15 1014 29.94 843 24.89 9.9 49.9 36 -4.4 24.1
05:20 1014 29.94 843 24.89 10.1 50.3 35 -4.5 24
05:25 1014 29.94 843 24.89 10.1 50.2 37 -4 24.9
05:30 1014 29.94 843 24.89 10.2 50.4 34 -5 23.1
05:35 1014 29.94 843 24.89 10.8 51.4 34 -4.6 23.8
05:40 1014 29.94 843 24.89 10.7 51.2 35 -4.2 24.4
05:45 1014 29.94 843 24.89 10.4 50.8 36 -3.8 25.1
05:50 1014 29.94 843 24.89 10.2 50.3 36 -4.1 24.7
05:55 1014 29.94 844 24.92 10.2 50.3 37 -4 24.7
06:00 1014 29.94 844 24.92 10.2 50.3 36 -4.1 24.6
06:05 1014 29.94 844 24.92 10.2 50.4 37 -3.8 25.1
06:10 1014 29.94 844 24.92 10.1 50.2 37 -3.9 25
06:15 1014 29.94 844 24.92 10.1 50.2 38 -3.7 25.4
06:20 1014 29.94 844 24.92 10 50 38 -3.7 25.3
06:25 1014 29.94 844 24.92 9.9 49.9 38 -3.6 25.6
06:30 1014 29.94 844 24.92 10.2 50.4 37 -3.8 25.2
06:35 1014 29.94 844 24.92 10.5 50.8 38 -3.3 26.1
06:40 1014 29.94 844 24.92 10.3 50.6 35 -4.3 24.3
06:45 1014 29.94 843 24.89 10.9 51.7 34 -4.2 24.4
06:50 1014 29.94 843 24.89 11.4 52.6 34 -3.8 25.2
06:55 1014 29.94 843 24.89 11.4 52.5 36 -3.1 26.4
07:00 1014 29.94 843 24.89 11.5 52.8 36 -2.9 26.8
07:05 1014 29.94 843 24.89 12.1 53.8 34 -3.3 26
07:10 1014 29.94 843 24.89 12.9 55.2 32 -3.3 26.1
07:15 1014 29.94 843 24.89 13.5 56.2 31 -3.2 26.3
07:20 1014 29.94 843 24.89 13.7 56.6 31 -3.1 26.5
07:25 1014 29.94 844 24.92 14 57.2 30 -3.2 26.2
07:30 1014 29.94 844 24.92 13.8 56.9 31 -3 26.5
07:35 1014 29.94 843 24.89 13.7 56.6 31 -3 26.6
07:40 1014 29.94 843 24.89 13.6 56.4 31 -3 26.6
07:45 1014 29.94 843 24.89 13.8 56.8 31 -3 26.6
07:50 1014 29.94 843 24.89 14.4 57.8 31 -2.7 27.2
07:55 1014 29.94 843 24.89 14.7 58.4 31 -2.1 28.2
08:00 1014 29.94 843 24.89 14.6 58.4 30 -2.5 27.5
08:05 1014 29.94 843 24.89 15 58.9 30 -2.3 27.8
08:10 1014 29.94 843 24.89 14.4 57.9 31 -2.4 27.7
08:15 1014 29.94 843 24.89 14.1 57.3 31 -2.6 27.3
08:20 1014 29.94 843 24.89 13.8 56.8 32 -2.6 27.2
08:25 1014 29.94 843 24.89 13.6 56.5 33 -2.3 27.9
08:30 1014 29.94 843 24.89 13.7 56.6 33 -2.2 28
08:35 1013 29.91 843 24.89 14.1 57.5 30 -3 26.7
08:40 1013 29.91 843 24.89 14.6 58.2 29 -3.3 26.1
08:45 1013 29.91 843 24.89 15 59.1 27 -3.7 25.3
08:50 1013 29.91 843 24.89 15.2 59.4 27 -3.5 25.7
08:55 1013 29.91 843 24.89 15.5 59.9 27 -3.6 25.6
09:00 1013 29.91 842 24.86 15.8 60.4 26 -3.5 25.7
09:05 1013 29.91 842 24.86 15.6 60.1 27 -3.3 26
09:10 1013 29.91 842 24.86 15.7 60.3 26 -3.8 25.2
09:15 1013 29.91 842 24.86 16.1 61 24 -4.1 24.6
09:20 1013 29.91 842 24.86 15.9 60.6 24 -4.4 24.1
09:25 1013 29.91 842 24.86 15.8 60.4 26 -3.8 25.2
09:30 1013 29.91 842 24.86 15.7 60.2 26 -3.9 25
09:35 1013 29.91 842 24.86 15.9 60.7 26 -3.6 25.5
09:40 1013 29.91 842 24.86 16.1 61 25 -3.9 25
09:45 1013 29.91 842 24.86 16.1 61 26 -3.3 26
09:50 1012 29.88 842 24.86 16.3 61.4 24 -4 24.7
09:55 1013 29.91 842 24.86 16.6 62 25 -3.5 25.6
10:00 1013 29.91 842 24.86 16.7 62.1 26 -2.9 26.9
10:05 1013 29.91 842 24.86 16.6 61.9 26 -2.8 27
10:10 1013 29.91 842 24.86 16.3 61.4 27 -2.8 27
10:15 1013 29.91 842 24.86 16.2 61.1 26 -3.3 26
10:20 1013 29.91 842 24.86 16.4 61.6 26 -3.1 26.4
10:25 1013 29.91 842 24.86 16 60.7 28 -2.6 27.3
10:30 1013 29.91 842 24.86 15.7 60.2 28 -2.7 27.1
10:35 1013 29.91 842 24.86 15.6 60.2 29 -2.4 27.7
10:40 1013 29.91 842 24.86 15.4 59.8 30 -1.9 28.5
10:45 1013 29.91 842 24.86 15 59 30 -2.1 28.2
10:50 1013 29.91 842 24.86 14.7 58.4 31 -2.1 28.3
10:55 1013 29.91 842 24.86 14.5 58.1 31 -2.1 28.2
11:00 1013 29.91 842 24.86 14.5 58.1 31 -2.2 28.1
11:05 1013 29.91 842 24.86 14.8 58.6 30 -2.4 27.7
11:10 1013 29.91 842 24.86 15.1 59.2 30 -2.2 28
11:15 1013 29.91 842 24.86 15.1 59.1 29 -2.6 27.3
11:20 1013 29.91 842 24.86 14.9 58.9 29 -2.8 26.9
11:25 1013 29.91 842 24.86 14.9 58.8 28 -3.2 26.3
11:30 1013 29.91 842 24.86 14.7 58.5 28 -3.4 26
11:35 1013 29.91 842 24.86 14.6 58.2 28 -3.7 25.4
11:40 1013 29.91 842 24.86 14.4 57.9 32 -2 28.3
11:45 1013 29.91 842 24.86 13.9 57.1 32 -2.3 27.8
11:50 1013 29.91 842 24.86 13.9 57 31 -3.1 26.4
11:55 1013 29.91 842 24.86 14.1 57.3 28 -4 24.9
12:00 1013 29.91 842 24.86 14.3 57.7 27 -4.4 24
12:05 1013 29.91 842 24.86 14.3 57.8 26 -4.7 23.5
12:10 1013 29.91 842 24.86 14.4 57.8 27 -4.5 24
12:15 1013 29.91 842 24.86 14.4 57.9 27 -4.3 24.3
12:20 1013 29.91 842 24.86 14.3 57.8 26 -5 23.1
12:25 1013 29.91 842 24.86 14.3 57.7 26 -5.1 22.8
12:30 1013 29.91 842 24.86 14.3 57.7 23 -6.4 20.4
12:35 1013 29.91 842 24.86 14.4 57.9 24 -5.9 21.3
12:40 1013 29.91 842 24.86 14.2 57.6 24 -5.9 21.4
12:45 1013 29.91 843 24.89 14.1 57.3 25 -5.4 22.3
12:50 1013 29.91 843 24.89 14 57.2 25 -5.5 22.1
12:55 1014 29.94 843 24.89 13.9 57 25 -5.5 22
13:00 1014 29.94 843 24.89 13.8 56.8 27 -4.8 23.4
13:05 1014 29.94 843 24.89 13.7 56.6 28 -4.4 24.1
13:10 1013 29.91 843 24.89 13.6 56.5 27 -4.9 23.2
13:15 1013 29.91 843 24.89 13.6 56.4 27 -5 22.9
13:20 1013 29.91 843 24.89 13.7 56.7 26 -5.2 22.6
13:25 1014 29.94 843 24.89 13.8 56.8 26 -5.3 22.4
13:30 1014 29.94 843 24.89 13.7 56.6 26 -5.5 22.2
13:35 1014 29.94 843 24.89 13.6 56.5 27 -5.1 22.9
13:40 1014 29.94 843 24.89 13.6 56.5 27 -4.8 23.4
13:45 1014 29.94 843 24.89 13.6 56.5 28 -4.4 24
13:50 1014 29.94 843 24.89 13.5 56.3 34 -1.9 28.6
13:55 1014 29.94 843 24.89 12.2 53.9 43 -0 32
14:00 1014 29.94 843 24.89 11.3 52.3 45 -0.2 31.7
14:05 1014 29.94 843 24.89 11.3 52.3 43 -0.6 30.9
14:10 1014 29.94 843 24.89 11.3 52.3 43 -0.7 30.7
14:15 1014 29.94 843 24.89 11.4 52.5 43 -0.9 30.5
14:20 1014 29.94 843 24.89 11.5 52.6 42 -0.8 30.5
14:25 1014 29.94 843 24.89 11.7 53.1 41 -1.1 30.1
14:30 1014 29.94 843 24.89 12.1 53.8 39 -1.3 29.6
14:35 1014 29.94 843 24.89 12.4 54.4 38 -1.6 29.2
14:40 1014 29.94 843 24.89 12.7 54.9 37 -1.6 29.2
14:45 1014 29.94 843 24.89 13 55.4 30 -4 24.9
14:50 1014 29.94 843 24.89 13.5 56.3 26 -5.6 22
14:55 1014 29.94 843 24.89 13.7 56.7 26 -5.6 22
15:00 1014 29.94 843 24.89 13.8 56.9 26 -5.3 22.4
15:05 1014 29.94 843 24.89 14 57.2 26 -5 23.1
15:10 1013 29.91 843 24.89 14.1 57.4 28 -4.1 24.7
15:15 1014 29.94 843 24.89 14.1 57.3 31 -2.7 27.1
15:20 1014 29.94 843 24.89 13.9 57 28 -4.3 24.3
15:25 1014 29.94 843 24.89 14.2 57.6 26 -4.7 23.5
15:30 1014 29.94 843 24.89 14.2 57.6 27 -4.6 23.7
15:35 1014 29.94 843 24.89 14.6 58.3 26 -4.6 23.7
15:40 1014 29.94 843 24.89 15 59 26 -4.3 24.3
15:45 1013 29.91 843 24.89 15 59 27 -3.8 25.1
15:50 1013 29.91 843 24.89 14.8 58.6 27 -4.1 24.6
15:55 1013 29.91 843 24.89 14.4 57.9 27 -4.3 24.3
16:00 1013 29.91 843 24.89 14.3 57.8 27 -4.5 24
16:05 1013 29.91 842 24.86 14.3 57.7 27 -4.1 24.6
16:10 1013 29.91 842 24.86 14 57.2 28 -4.4 24.1
16:15 1013 29.91 842 24.86 13.9 57 26 -5 22.9
16:20 1013 29.91 842 24.86 13.8 56.9 27 -5 23
16:25 1013 29.91 842 24.86 13.8 56.8 26 -5.5 22.1
16:30 1013 29.91 843 24.89 13.7 56.6 25 -5.9 21.4
16:35 1013 29.91 843 24.89 13.7 56.6 25 -5.8 21.5
16:40 1013 29.91 843 24.89 13.7 56.6 25 -5.7 21.7
16:45 1014 29.94 843 24.89 13.7 56.6 26 -5.4 22.3
16:50 1014 29.94 843 24.89 13.7 56.7 26 -5.4 22.2
16:55 1014 29.94 843 24.89 13.6 56.5 26 -5.5 22.1
17:00 1014 29.94 843 24.89 13.6 56.5 26 -5.3 22.4
17:05 1014 29.94 843 24.89 13.6 56.5 25 -6.1 21.1
17:10 1014 29.94 843 24.89 13.6 56.5 24 -6.3 20.7
17:15 1014 29.94 843 24.89 13.5 56.3 24 -6.6 20
17:20 1014 29.94 843 24.89 13.4 56.1 23 -7.2 19.1
17:25 1014 29.94 843 24.89 13.3 56 24 -6.9 19.7
17:30 1014 29.94 843 24.89 13.2 55.8 23 -7.5 18.4
17:35 1014 29.94 843 24.89 13.1 55.5 23 -7.6 18.3
17:40 1014 29.94 843 24.89 13 55.4 22 -8.2 17.3
17:45 1014 29.94 843 24.89 12.9 55.2 23 -7.5 18.6
17:50 1014 29.94 843 24.89 12.8 55 25 -6.8 19.8
17:55 1014 29.94 843 24.89 12.6 54.8 26 -6.4 20.6
18:00 1014 29.94 843 24.89 12.5 54.5 27 -6.2 20.9
18:05 1014 29.94 843 24.89 12.4 54.4 28 -5.8 21.6
18:10 1014 29.94 843 24.89 12.3 54.2 28 -5.8 21.5
18:15 1014 29.94 843 24.89 12.3 54.1 28 -5.8 21.5
18:20 1014 29.94 843 24.89 12.2 53.9 28 -5.8 21.5
18:25 1014 29.94 843 24.89 12.1 53.7 28 -5.8 21.5
18:30 1014 29.94 843 24.89 11.9 53.5 28 -6.1 21
18:35 1014 29.94 843 24.89 11.9 53.3 27 -6.5 20.4
18:40 1014 29.94 843 24.89 11.8 53.2 27 -6.4 20.5
18:45 1014 29.94 843 24.89 11.6 52.8 28 -6.3 20.6
18:50 1014 29.94 843 24.89 11.4 52.4 28 -6.4 20.5
18:55 1014 29.94 843 24.89 11.2 52.2 27 -7 19.5
19:00 1014 29.94 843 24.89 11.1 51.9 26 -7.7 18.2
19:05 1014 29.94 843 24.89 11 51.7 25 -8.1 17.5
19:10 1014 29.94 844 24.92 10.8 51.5 23 -9.7 14.5
19:15 1014 29.94 844 24.92 10.8 51.5 21 -10.4 13.3
19:20 1014 29.94 844 24.92 10.8 51.5 21 -10.4 13.2
19:25 1015 29.97 844 24.92 10.7 51.3 21 -10.9 12.3
19:30 1015 29.97 844 24.92 10.6 51.1 21 -10.7 12.7
19:35 1015 29.97 844 24.92 10.6 51 22 -10.4 13.2
19:40 1015 29.97 844 24.92 10.5 50.8 24 -9.5 14.8
19:45 1015 29.97 844 24.92 10.4 50.8 25 -8.7 16.3
19:50 1015 29.97 844 24.92 10.3 50.6 26 -8.2 17.3
19:55 1015 29.97 845 24.95 9.7 49.5 31 -6.7 20
20:00 1016 30 845 24.95 9.3 48.7 32 -6.4 20.4
20:05 1016 30 845 24.95 9.1 48.4 33 -6.3 20.7
20:10 1016 30 845 24.95 9 48.1 33 -6.4 20.4
20:15 1016 30 845 24.95 8.8 47.9 33 -6.4 20.4
20:20 1016 30 845 24.95 8.6 47.5 33 -6.7 19.9
20:25 1016 30 845 24.95 8.6 47.4 32 -7.2 19
20:30 1016 30 845 24.95 8.5 47.3 32 -7.3 18.8
20:35 1016 30 845 24.95 8.4 47.1 31 -7.6 18.3
20:40 1016 30 845 24.95 8.3 47 32 -7.6 18.4
20:45 1016 30 846 24.98 8.2 46.7 32 -7.4 18.6
20:50 1016 30 846 24.98 8 46.4 33 -7.4 18.7
20:55 1017 30.03 846 24.98 7.9 46.2 32 -7.6 18.3
21:00 1017 30.03 846 24.98 7.8 46 32 -7.7 18.2
21:05 1017 30.03 846 24.98 7.6 45.8 33 -7.6 18.3
21:10 1017 30.03 846 24.98 7.5 45.5 34 -7.5 18.5
21:15 1017 30.03 846 24.98 7.4 45.3 34 -7.6 18.3
21:20 1017 30.03 846 24.98 7.3 45.1 34 -7.7 18.2
21:25 1017 30.03 846 24.98 7.2 44.9 34 -7.6 18.3
21:30 1017 30.03 846 24.98 7.1 44.7 34 -7.7 18.2
21:35 1017 30.03 846 24.98 7 44.7 34 -7.6 18.3
21:40 1017 30.03 846 24.98 7 44.6 35 -7.5 18.4
21:45 1017 30.03 846 24.98 6.9 44.5 35 -7.5 18.5
21:50 1017 30.03 846 24.98 6.9 44.4 35 -7.5 18.5
21:55 1017 30.03 847 25.01 6.8 44.3 36 -7.4 18.7
22:00 1017 30.03 847 25.01 6.7 44.1 36 -7.3 18.9
22:05 1017 30.03 847 25.01 6.5 43.6 37 -7 19.4
22:10 1018 30.06 847 25.01 6.3 43.4 37 -7.5 18.6
22:15 1017 30.03 847 25.01 6.4 43.6 36 -7.5 18.6
22:20 1017 30.03 847 25.01 6.4 43.6 36 -7.4 18.6
22:25 1018 30.06 847 25.01 6.5 43.6 36 -7.5 18.5
22:30 1018 30.06 847 25.01 6.5 43.7 36 -7.4 18.6
22:35 1018 30.06 847 25.01 6.4 43.6 36 -7.5 18.4
22:40 1018 30.06 847 25.01 6.4 43.6 36 -7.6 18.3
22:45 1018 30.06 847 25.01 6.3 43.4 36 -7.7 18.1
22:50 1018 30.06 847 25.01 6.2 43.2 37 -7.3 18.9
22:55 1018 30.06 847 25.01 6 42.9 38 -7.2 19.1
23:00 1018 30.06 847 25.01 5.9 42.6 39 -7.2 19.1
23:05 1018 30.06 847 25.01 5.9 42.6 38 -7.3 18.8
23:10 1018 30.06 847 25.01 5.9 42.6 38 -7.3 18.9
23:15 1018 30.06 847 25.01 5.9 42.5 38 -7.3 18.9
23:20 1018 30.06 847 25.01 5.8 42.5 39 -7.2 19.1
23:25 1018 30.06 847 25.01 5.7 42.3 39 -7.3 18.9
23:30 1018 30.06 847 25.01 5.7 42.2 38 -7.4 18.6
23:35 1018 30.06 847 25.01 5.8 42.4 37 -7.7 18.2
23:40 1018 30.06 847 25.01 5.8 42.5 38 -7.4 18.7
23:45 1018 30.06 847 25.01 5.6 42.1 43 -5.9 21.3
23:50 1018 30.06 847 25.01 4.3 39.7 51 -4.9 23.2
23:55 1018 30.06 847 25.01 3.5 38.3 54 -5 23
24:00 1018 30.06 847 25.01 3.5 38.2 52 -5.5 22.1